Time;durP1;ratioP1;P1;durP2;ratioP2;P2;SDS_P1;SDS_P2;PMS_P1;PMS_P2;Temp;Humidity;BMP_temperature;BMP_pressure;BME280_temperature;BME280_humidity;BME280_pressure;Samples;Min_cycle;Max_cycle;Signal;HPM_P1;HPM_P2
2023/08/28 00:02:01;;;;;;;10.27;4.70;;;;;;;27.29;40.15;99874.87;124636;1099;102178;-79
2023/08/28 00:04:33;;;;;;;11.63;4.40;;;;;;;27.27;40.55;99876.77;124635;1099;101941;-79
2023/08/28 00:07:04;;;;;;;10.17;4.83;;;;;;;27.25;40.18;99871.45;124722;1099;102029;-82
2023/08/28 00:09:35;;;;;;;11.70;5.00;;;;;;;27.17;40.69;99870.87;124750;1099;104258;-81
2023/08/28 00:12:07;;;;;;;10.70;5.13;;;;;;;27.10;40.46;99877.48;124821;1099;101843;-81
2023/08/28 00:14:39;;;;;;;9.17;4.50;;;;;;;27.03;40.83;99873.30;124889;1099;101968;-81
2023/08/28 00:17:10;;;;;;;8.80;4.30;;;;;;;26.99;40.85;99871.66;124796;1099;101919;-80
2023/08/28 00:19:41;;;;;;;10.17;4.80;;;;;;;27.01;40.69;99872.49;124596;1099;101843;-80
2023/08/28 00:22:13;;;;;;;12.47;4.70;;;;;;;26.99;40.94;99867.17;124349;1102;102138;-78
2023/08/28 00:24:44;;;;;;;10.30;4.73;;;;;;;26.98;40.54;99867.23;124550;1102;104275;-80
2023/08/28 00:27:15;;;;;;;10.13;4.90;;;;;;;26.96;40.96;99869.09;124663;1102;102086;-80
2023/08/28 00:29:47;;;;;;;10.90;4.33;;;;;;;26.97;40.67;99865.47;124526;1102;104241;-79
2023/08/28 00:32:18;;;;;;;9.90;5.07;;;;;;;26.95;40.91;99870.06;124694;1101;104211;-80
2023/08/28 00:34:50;;;;;;;9.30;4.70;;;;;;;26.93;41.05;99874.61;125858;1100;101833;-79
2023/08/28 00:37:21;;;;;;;7.90;4.30;;;;;;;26.92;40.53;99872.88;124645;1102;101885;-80
2023/08/28 00:39:53;;;;;;;10.17;4.60;;;;;;;26.93;40.65;99872.81;124616;1102;104310;-80
2023/08/28 00:42:25;;;;;;;9.43;4.43;;;;;;;26.91;40.73;99861.21;124506;1102;104169;-79
2023/08/28 00:44:56;;;;;;;7.60;4.73;;;;;;;26.88;40.64;99864.03;124504;1102;104221;-78
2023/08/28 00:47:27;;;;;;;9.33;4.60;;;;;;;26.83;40.77;99864.26;124510;1102;104204;-79
2023/08/28 00:49:59;;;;;;;13.70;5.07;;;;;;;26.79;41.25;99865.31;124593;1102;102081;-79
2023/08/28 00:52:31;;;;;;;11.10;4.90;;;;;;;26.75;41.02;99866.38;124549;1102;102101;-79
2023/08/28 00:55:03;;;;;;;7.83;4.80;;;;;;;26.70;40.92;99871.94;124580;1102;102466;-79
2023/08/28 00:57:35;;;;;;;8.98;4.75;;;;;;;26.66;40.98;99867.64;124503;1102;104223;-79
2023/08/28 01:00:10;;;;;;;9.13;4.73;;;;;;;26.65;40.80;99871.26;124567;1102;104211;-79
2023/08/28 01:02:43;;;;;;;7.77;4.40;;;;;;;26.63;41.22;99864.14;124660;1100;104194;-80
2023/08/28 01:05:14;;;;;;;8.90;4.90;;;;;;;26.66;41.28;99869.44;124674;1100;104201;-79
2023/08/28 01:07:56;;;;;;;10.03;5.07;;;;;;;26.67;40.80;99872.06;124496;1102;104194;-79
2023/08/28 01:10:35;;;;;;;9.93;4.70;;;;;;;26.70;41.03;99871.94;124499;1102;104198;-79
2023/08/28 01:13:12;;;;;;;7.40;4.83;;;;;;;26.72;41.27;99874.56;124448;1102;104178;-78
2023/08/28 01:15:44;;;;;;;12.33;5.13;;;;;;;26.71;40.92;99871.01;124598;1102;101900;-79
2023/08/28 01:18:16;;;;;;;9.17;4.60;;;;;;;26.68;41.03;99878.34;124566;1102;102070;-79
2023/08/28 01:20:49;;;;;;;9.80;4.67;;;;;;;26.64;40.75;99876.67;124690;1102;104198;-80
2023/08/28 01:23:29;;;;;;;9.45;5.08;;;;;;;26.60;40.85;99872.34;124745;1102;104245;-79
2023/08/28 01:26:01;;;;;;;8.27;4.97;;;;;;;26.57;40.77;99867.08;124610;1102;101884;-78
2023/08/28 01:28:33;;;;;;;9.23;4.92;;;;;;;26.57;41.17;99870.67;124696;1102;104176;-80
2023/08/28 01:31:07;;;;;;;6.90;4.57;;;;;;;26.60;41.41;99869.66;124699;1102;104245;-80
2023/08/28 01:33:37;;;;;;;;;;;;;;;26.59;41.34;99867.92;124722;1101;104293;-80
2023/08/28 01:36:20;;;;;;;9.83;4.53;;;;;;;26.60;40.96;99869.66;124723;1102;104294;-80
2023/08/28 01:38:54;;;;;;;;;;;;;;;26.58;41.14;99864.33;124773;1099;101916;-80
2023/08/28 01:41:26;;;;;;;8.47;4.47;;;;;;;26.55;41.39;99865.35;124791;1099;104249;-80
2023/08/28 01:43:58;;;;;;;;;;;;;;;26.53;41.25;99869.03;124851;1102;101983;-80
2023/08/28 01:46:31;;;;;;;8.43;4.57;;;;;;;26.52;41.53;99870.86;124723;1102;102022;-80
2023/08/28 01:49:03;;;;;;;11.73;4.70;;;;;;;26.48;41.04;99861.15;124762;1102;102029;-80
2023/08/28 01:51:34;;;;;;;6.77;4.50;;;;;;;26.48;41.56;99860.28;124765;1102;104188;-80
2023/08/28 01:54:06;;;;;;;7.83;4.53;;;;;;;26.49;41.28;99859.32;124810;1100;102112;-80
2023/08/28 01:56:37;;;;;;;9.33;4.70;;;;;;;26.48;40.98;99861.15;124854;1102;104769;-81
2023/08/28 01:59:08;;;;;;;8.67;4.77;;;;;;;26.47;41.22;99856.70;124786;1102;104048;-81
2023/08/28 02:01:40;;;;;;;8.60;5.10;;;;;;;26.47;41.22;99862.08;124750;1102;102053;-80
2023/08/28 02:04:11;;;;;;;8.57;4.50;;;;;;;26.50;41.15;99861.09;124705;1102;104172;-80
2023/08/28 02:06:42;;;;;;;10.40;4.57;;;;;;;26.44;41.44;99855.95;124738;1102;104221;-79
2023/08/28 02:09:14;;;;;;;7.03;4.43;;;;;;;26.43;41.32;99843.43;124721;1102;104242;-80
2023/08/28 02:11:46;;;;;;;12.43;4.57;;;;;;;26.42;41.18;99845.26;124729;1102;104255;-80
2023/08/28 02:14:17;;;;;;;8.60;4.47;;;;;;;26.45;41.41;99849.64;124750;1099;104249;-80
2023/08/28 02:16:49;;;;;;;12.40;4.80;;;;;;;26.45;41.51;99844.27;124617;1099;101820;-79
2023/08/28 02:19:20;;;;;;;9.40;4.20;;;;;;;26.44;41.45;99837.12;124660;1099;104245;-80
2023/08/28 02:21:51;;;;;;;13.07;4.70;;;;;;;26.43;41.48;99829.98;124697;1102;101919;-80
2023/08/28 02:24:24;;;;;;;11.87;4.83;;;;;;;26.42;41.19;99834.50;124756;1099;104230;-80
2023/08/28 02:26:56;;;;;;;11.20;4.60;;;;;;;26.41;41.64;99835.42;124759;1102;104169;-80
2023/08/28 02:29:27;;;;;;;11.00;4.93;;;;;;;26.41;41.76;99838.11;124764;1102;104255;-80
2023/08/28 02:31:58;;;;;;;8.83;4.40;;;;;;;26.42;41.58;99845.26;124845;1102;104345;-81
2023/08/28 02:34:30;;;;;;;14.70;4.60;;;;;;;26.38;41.34;99835.55;124672;1099;102342;-80
2023/08/28 02:37:01;;;;;;;11.80;4.60;;;;;;;26.39;41.74;99840.00;124674;1102;104124;-81
2023/08/28 02:39:33;;;;;;;16.00;5.00;;;;;;;26.37;41.34;99841.89;124740;1102;102360;-80
2023/08/28 02:42:05;;;;;;;8.37;4.60;;;;;;;26.37;41.49;99847.27;124720;1100;104198;-81
2023/08/28 02:44:36;;;;;;;8.50;4.80;;;;;;;26.37;41.38;99848.13;124767;1099;104256;-83
2023/08/28 02:47:07;;;;;;;11.33;4.70;;;;;;;26.35;41.63;99850.02;125159;1102;101916;-81
2023/08/28 02:49:39;;;;;;;9.57;4.50;;;;;;;26.35;41.74;99857.19;124784;1102;104169;-81
2023/08/28 02:52:10;;;;;;;7.77;4.70;;;;;;;26.33;41.66;99856.37;124799;1102;102067;-81
2023/08/28 02:54:41;;;;;;;10.30;4.77;;;;;;;26.31;41.87;99858.27;125830;1098;104249;-81
2023/08/28 02:57:12;;;;;;;9.87;4.77;;;;;;;26.29;41.87;99865.53;124812;1102;104682;-81
2023/08/28 02:59:44;;;;;;;15.63;5.70;;;;;;;26.26;41.87;99858.45;124725;1102;102068;-81
2023/08/28 03:02:15;;;;;;;39.43;8.30;;;;;;;26.24;41.85;99857.64;124739;1101;102015;-80
2023/08/28 03:04:47;;;;;;;13.23;5.10;;;;;;;26.18;42.23;99853.37;124764;1099;102191;-81
2023/08/28 03:07:18;;;;;;;18.87;5.40;;;;;;;26.18;41.77;99847.98;124737;1102;102025;-81
2023/08/28 03:09:50;;;;;;;13.23;4.93;;;;;;;26.14;41.92;99857.10;124779;1101;104185;-81
2023/08/28 03:12:21;;;;;;;11.83;4.87;;;;;;;26.12;42.20;99855.42;124742;1102;104353;-81
2023/08/28 03:14:53;;;;;;;11.90;5.07;;;;;;;26.08;41.76;99857.34;124721;1101;104338;-80
2023/08/28 03:17:24;;;;;;;11.77;4.90;;;;;;;26.07;42.35;99855.61;124803;1102;104162;-81
2023/08/28 03:19:56;;;;;;;10.20;4.50;;;;;;;26.05;42.17;99856.59;124819;1099;104242;-81
2023/08/28 03:22:27;;;;;;;8.10;4.60;;;;;;;26.04;42.26;99853.03;124745;1099;104076;-80
2023/08/28 03:24:58;;;;;;;10.83;5.00;;;;;;;26.04;42.01;99855.72;124717;1102;102651;-81
2023/08/28 03:27:30;;;;;;;8.60;4.43;;;;;;;26.01;42.60;99859.39;124697;1102;102041;-80
2023/08/28 03:30:02;;;;;;;11.03;4.83;;;;;;;25.99;42.26;99860.38;124885;1102;104057;-80
2023/08/28 03:32:33;;;;;;;11.23;5.00;;;;;;;25.97;42.15;99863.13;124734;1102;104223;-80
2023/08/28 03:35:06;;;;;;;11.83;5.13;;;;;;;25.95;42.65;99873.03;124743;1100;104240;-81
2023/08/28 03:37:37;;;;;;;15.60;5.13;;;;;;;25.96;42.57;99863.15;124724;1099;104153;-80
2023/08/28 03:40:11;;;;;;;42.13;6.40;;;;;;;25.97;42.27;99872.98;124780;1101;101777;-81
2023/08/28 03:42:42;;;;;;;13.98;4.70;;;;;;;25.93;42.96;99866.84;124811;1101;104204;-82
2023/08/28 03:45:13;;;;;;;13.20;4.60;;;;;;;25.93;42.75;99866.84;125864;1098;104131;-82
2023/08/28 03:47:45;;;;;;;13.63;5.27;;;;;;;25.94;42.92;99862.34;125981;1102;101813;-85
2023/08/28 03:50:16;;;;;;;11.07;4.70;;;;;;;25.94;42.94;99867.72;125531;1102;104261;-84
2023/08/28 03:52:47;;;;;;;11.83;4.90;;;;;;;25.97;42.57;99859.53;125161;1101;102400;-83
2023/08/28 03:55:19;;;;;;;13.33;5.17;;;;;;;25.99;42.70;99858.59;125156;1102;104166;-84
2023/08/28 03:57:51;;;;;;;23.00;5.97;;;;;;;26.04;42.96;99857.52;125049;1102;104172;-82
2023/08/28 04:00:23;;;;;;;12.17;4.80;;;;;;;26.07;42.75;99860.08;125784;1099;101823;-83
2023/08/28 04:02:54;;;;;;;11.47;4.90;;;;;;;26.08;43.11;99862.71;126023;1100;101917;-81
2023/08/28 04:05:29;;;;;;;9.13;4.70;;;;;;;26.08;43.13;99859.16;125012;1099;102240;-82
2023/08/28 04:08:00;;;;;;;12.27;5.27;;;;;;;26.10;43.51;99860.86;124865;1102;101886;-80
2023/08/28 04:10:31;;;;;;;10.77;4.70;;;;;;;26.11;43.19;99862.59;125055;1102;102077;-81
2023/08/28 04:13:04;;;;;;;20.17;5.20;;;;;;;26.14;43.43;99867.85;125259;1102;101826;-81
2023/08/28 04:15:35;;;;;;;16.97;5.30;;;;;;;26.18;43.67;99868.64;125097;1099;104230;-82
2023/08/28 04:18:08;;;;;;;10.73;4.90;;;;;;;26.22;43.65;99866.69;124854;1100;101999;-81
2023/08/28 04:20:39;;;;;;;12.63;4.37;;;;;;;26.24;43.25;99864.81;124884;1100;104239;-80
2023/08/28 04:23:10;;;;;;;15.77;5.07;;;;;;;26.26;43.62;99865.65;124811;1099;104279;-81
2023/08/28 04:25:43;;;;;;;19.57;4.80;;;;;;;26.29;43.71;99862.84;124803;1102;102558;-81
2023/08/28 04:28:15;;;;;;;10.97;4.67;;;;;;;26.33;42.94;99869.83;124743;1102;104185;-82
2023/08/28 04:30:47;;;;;;;16.13;4.97;;;;;;;26.36;43.83;99869.70;124849;1102;104332;-82
2023/08/28 04:33:18;;;;;;;12.93;5.03;;;;;;;26.38;43.30;99870.51;124850;1101;101895;-82
2023/08/28 04:35:50;;;;;;;7.13;4.70;;;;;;;26.42;43.29;99865.91;124787;1102;104157;-82
2023/08/28 04:38:23;;;;;;;9.75;4.70;;;;;;;26.45;43.33;99858.58;124801;1102;102278;-82
2023/08/28 04:40:54;;;;;;;9.23;4.53;;;;;;;26.48;43.22;99863.84;124765;1099;104242;-83
2023/08/28 04:43:25;;;;;;;13.63;4.93;;;;;;;26.51;42.81;99861.02;124853;1102;101922;-83
2023/08/28 04:45:57;;;;;;;13.23;5.00;;;;;;;26.54;43.45;99863.59;126031;1098;102904;-82
2023/08/28 04:48:29;;;;;;;13.17;4.80;;;;;;;26.59;43.03;99859.85;125327;1100;104169;-80
2023/08/28 04:51:04;;;;;;;11.83;4.37;;;;;;;26.62;43.04;99857.03;124721;1102;104616;-78
2023/08/28 04:53:34;;;;;;;;;;;;;;;26.64;43.27;99856.02;124873;1102;102064;-78
2023/08/28 04:56:05;;;;;;;12.27;4.60;;;;;;;26.66;43.13;99853.29;124467;1099;104262;-79
2023/08/28 04:58:37;;;;;;;9.77;4.40;;;;;;;26.67;43.17;99853.23;124663;1102;104191;-79
2023/08/28 05:01:08;;;;;;;9.67;4.40;;;;;;;26.70;43.11;99847.72;124745;1099;104241;-81
2023/08/28 05:03:40;;;;;;;9.00;4.63;;;;;;;26.73;42.82;99846.73;124703;1102;101912;-80
2023/08/28 05:06:12;;;;;;;10.90;4.70;;;;;;;26.76;42.70;99843.91;124676;1102;104220;-80
2023/08/28 05:08:43;;;;;;;8.07;4.40;;;;;;;26.80;43.05;99845.55;124705;1102;104384;-79
2023/08/28 05:11:18;;;;;;;10.00;4.20;;;;;;;26.84;43.16;99847.15;125820;1102;101984;-79
2023/08/28 05:13:50;;;;;;;8.37;4.53;;;;;;;26.90;43.12;99857.66;125214;1102;104305;-79
2023/08/28 05:16:22;;;;;;;9.13;4.37;;;;;;;26.96;43.25;99855.64;124552;1102;104229;-78
2023/08/28 05:18:55;;;;;;;9.50;4.47;;;;;;;27.02;43.22;99849.99;124406;1102;104322;-77
2023/08/28 05:21:46;;;;;;;8.15;4.40;;;;;;;27.07;42.75;99848.86;124974;1102;104092;-78
2023/08/28 05:24:32;;;;;;;;;;;;;;;27.14;42.95;99849.47;124345;1101;102019;-79
2023/08/28 05:27:09;;;;;;;14.60;4.90;;;;;;;27.21;42.61;99856.34;125184;1102;101857;-78
2023/08/28 05:29:44;;;;;;;12.67;5.33;;;;;;;27.29;42.77;99864.09;124573;1102;104376;-79
2023/08/28 05:32:15;;;;;;;11.33;4.80;;;;;;;27.36;42.84;99862.03;124648;1102;101998;-78
2023/08/28 05:34:47;;;;;;;;;;;;;;;27.42;42.66;99859.06;124527;1102;104214;-78
2023/08/28 05:37:18;;;;;;;7.73;4.20;;;;;;;27.45;42.84;99853.55;125049;1102;101900;-79
2023/08/28 05:39:51;;;;;;;11.38;4.70;;;;;;;27.51;42.69;99852.41;124554;1102;104249;-76
2023/08/28 05:42:25;;;;;;;7.93;4.50;;;;;;;27.61;42.38;99851.93;124682;1102;102009;-75
2023/08/28 05:45:02;;;;;;;8.83;4.33;;;;;;;27.68;42.36;99851.65;124549;1102;104172;-73
2023/08/28 05:47:37;;;;;;;9.83;4.60;;;;;;;27.76;42.38;99844.08;124677;1101;104217;-77
2023/08/28 05:50:23;;;;;;;10.10;4.40;;;;;;;27.83;42.58;99848.25;125569;1100;104268;-78
2023/08/28 05:52:56;;;;;;;8.73;4.63;;;;;;;27.90;42.17;99847.00;125136;1102;104230;-78
2023/08/28 05:55:28;;;;;;;14.63;4.90;;;;;;;27.96;42.27;99848.58;126161;1099;101716;-77
2023/08/28 05:58:04;;;;;;;9.57;4.50;;;;;;;28.05;42.13;99842.77;126068;1102;102757;-76
2023/08/28 06:00:37;;;;;;;11.30;5.03;;;;;;;28.12;41.86;99838.80;126168;1100;107123;-76
2023/08/28 06:03:09;;;;;;;10.60;4.67;;;;;;;28.22;42.23;99841.06;126149;1101;101935;-76
2023/08/28 06:05:40;;;;;;;11.43;5.03;;;;;;;28.28;41.66;99847.06;124726;1102;104338;-79
2023/08/28 06:08:13;;;;;;;9.23;4.30;;;;;;;28.33;41.96;99846.84;124517;1102;102131;-77
2023/08/28 06:10:49;;;;;;;10.72;4.67;;;;;;;28.39;41.64;99843.84;124765;1102;102223;-78
2023/08/28 06:13:20;;;;;;;9.27;4.30;;;;;;;28.44;41.83;99844.48;124552;1102;104131;-78
2023/08/28 06:15:56;;;;;;;7.57;4.70;;;;;;;28.51;41.75;99845.05;124768;1100;104169;-80
2023/08/28 06:18:29;;;;;;;6.70;4.30;;;;;;;28.58;41.36;99851.01;124751;1101;104236;-76
2023/08/28 06:21:05;;;;;;;11.10;4.60;;;;;;;28.66;41.22;99854.26;124648;1102;102050;-78
2023/08/28 06:23:38;;;;;;;9.57;4.70;;;;;;;28.72;41.52;99856.66;125376;1102;103302;-80
2023/08/28 06:26:10;;;;;;;8.30;4.43;;;;;;;28.75;41.13;99859.20;125405;1102;104326;-77
2023/08/28 06:28:42;;;;;;;9.00;4.60;;;;;;;28.80;41.23;99861.67;124928;1102;102211;-77
2023/08/28 06:31:15;;;;;;;11.08;4.80;;;;;;;28.89;41.13;99863.91;125063;1101;110813;-80
2023/08/28 06:33:47;;;;;;;11.50;4.80;;;;;;;28.99;41.22;99861.61;125935;1100;102056;-78
2023/08/28 06:36:18;;;;;;;9.85;4.40;;;;;;;29.07;41.14;99862.08;124868;1102;104262;-79
2023/08/28 06:38:54;;;;;;;10.03;5.00;;;;;;;29.15;40.70;99853.58;125877;1101;102012;-80
2023/08/28 06:41:31;;;;;;;13.00;5.20;;;;;;;29.29;40.73;99855.60;125319;1102;101927;-85
2023/08/28 06:44:14;;;;;;;11.33;4.87;;;;;;;29.39;40.59;99855.04;125004;1103;104175;-77
2023/08/28 06:47:07;;;;;;;;;;;;;;;;;;;;;
2023/08/28 06:49:44;;;;;;;11.55;4.42;;;;;;;29.63;40.45;99862.80;124893;1102;102083;-77
2023/08/28 06:52:17;;;;;;;7.63;4.40;;;;;;;29.69;40.26;99857.05;124671;1100;104341;-82
2023/08/28 06:54:52;;;;;;;11.00;4.47;;;;;;;29.80;40.17;99861.05;126887;1100;104082;-80
2023/08/28 06:57:39;;;;;;;15.87;4.90;;;;;;;29.91;39.82;99859.48;125369;1101;102378;-80
2023/08/28 07:00:19;;;;;;;8.60;4.23;;;;;;;30.04;39.50;99851.56;125612;1102;104210;-81
2023/08/28 07:02:55;;;;;;;13.30;4.43;;;;;;;30.25;39.32;99845.94;126015;1101;102103;-79
2023/08/28 07:05:32;;;;;;;15.43;4.30;;;;;;;30.38;39.18;99846.96;124925;1102;104341;-82
2023/08/28 07:08:08;;;;;;;13.20;4.40;;;;;;;30.56;39.03;99855.91;126077;1102;104166;-82
2023/08/28 07:10:57;;;;;;;8.17;4.67;;;;;;;30.72;38.90;99855.87;125995;1102;101775;-85
2023/08/28 07:14:15;;;;;;;;;;;;;;;;;;;;;
2023/08/28 07:16:55;;;;;;;8.20;4.60;;;;;;;31.26;37.96;99851.83;125715;1102;104256;-80
2023/08/28 07:19:30;;;;;;;12.23;4.70;;;;;;;31.51;37.38;99852.08;125267;1102;104175;-82
2023/08/28 07:22:02;;;;;;;11.30;4.30;;;;;;;31.72;37.64;99844.46;126237;1100;104286;-83
2023/08/28 07:24:39;;;;;;;13.47;4.70;;;;;;;31.95;36.68;99839.44;125340;1102;104198;-80
2023/08/28 07:27:11;;;;;;;9.87;4.30;;;;;;;32.18;36.79;99843.41;125910;1101;101788;-82
2023/08/28 07:29:53;;;;;;;12.27;4.20;;;;;;;32.38;36.33;99843.94;125071;1102;101945;-80
2023/08/28 07:32:32;;;;;;;13.32;4.22;;;;;;;32.60;36.12;99841.55;126094;1102;108092;-79
2023/08/28 07:35:21;;;;;;;8.63;4.10;;;;;;;32.76;35.82;99835.13;125418;1100;104176;-80
2023/08/28 07:38:07;;;;;;;6.87;4.20;;;;;;;32.95;35.60;99832.89;126194;1101;101805;-80
2023/08/28 07:41:01;;;;;;;6.77;3.90;;;;;;;33.14;35.54;99828.91;125422;1101;104217;-79
2023/08/28 07:43:42;;;;;;;8.03;4.17;;;;;;;33.30;35.20;99828.73;125607;1102;102296;-82
2023/08/28 07:49:43;;;;;;;10.73;4.23;;;;;;;33.59;34.39;99814.94;124630;1102;102327;-80
2023/08/28 07:52:21;;;;;;;7.17;3.97;;;;;;;33.67;34.32;99813.42;125139;1102;104181;-79
2023/08/28 07:55:16;;;;;;;;;;;;;;;;;;;;;
2023/08/28 07:57:55;;;;;;;8.90;4.03;;;;;;;33.98;33.75;99823.95;127012;1101;102363;-79
2023/08/28 08:04:21;;;;;;;10.33;4.23;;;;;;;34.24;33.16;99821.22;126183;1101;101751;-84
2023/08/28 08:07:13;;;;;;;11.30;4.80;;;;;;;34.29;32.66;99819.88;125317;1102;104190;-84
2023/08/28 08:10:37;;;;;;;;;;;;;;;;;;;;;
2023/08/28 08:13:14;;;;;;;10.97;4.30;;;;;;;34.47;32.19;99809.47;126286;1101;101907;-84
2023/08/28 08:15:48;;;;;;;10.87;4.20;;;;;;;34.48;31.96;99813.05;125485;1102;107336;-82
2023/08/28 08:18:42;;;;;;;8.70;4.30;;;;;;;34.56;31.91;99816.05;126240;1101;102151;-80
2023/08/28 08:21:17;;;;;;;8.63;4.22;;;;;;;34.73;31.54;99810.22;125797;1102;104220;-81
2023/08/28 08:24:17;;;;;;;7.83;4.20;;;;;;;34.76;31.28;99806.41;125395;1102;104195;-82
2023/08/28 08:27:17;;;;;;;12.27;4.30;;;;;;;34.78;31.27;99804.42;125825;1102;104478;-82
2023/08/28 08:30:00;;;;;;;8.47;4.03;;;;;;;34.90;31.00;99808.07;125422;1102;102117;-80
2023/08/28 08:32:52;;;;;;;13.37;4.10;;;;;;;35.02;30.44;99798.95;126243;1102;101809;-82
2023/08/28 08:35:38;;;;;;;9.77;4.03;;;;;;;35.02;29.96;99801.67;125244;1102;102291;-82
2023/08/28 08:38:13;;;;;;;;;;;;;;;35.13;29.76;99802.70;125795;1102;101797;-83
2023/08/28 08:40:59;;;;;;;12.20;4.10;;;;;;;35.25;29.62;99790.83;126050;1102;102358;-79
2023/08/28 08:43:35;;;;;;;6.97;4.20;;;;;;;35.24;29.16;99792.67;124588;1102;104332;-81
2023/08/28 08:46:27;;;;;;;14.20;4.30;;;;;;;35.28;29.44;99787.90;125025;1102;104280;-78
2023/08/28 08:49:30;;;;;;;;;;;;;;;;;;;;;
2023/08/28 08:52:11;;;;;;;8.77;4.23;;;;;;;35.44;29.42;99784.81;124751;1102;104344;-77
2023/08/28 08:54:45;;;;;;;11.90;4.35;;;;;;;35.55;28.64;99778.50;124286;1102;101915;-77
2023/08/28 08:57:35;;;;;;;10.37;4.07;;;;;;;35.60;28.74;99778.98;124220;1102;104174;-79
2023/08/28 09:00:32;;;;;;;8.47;4.40;;;;;;;35.63;28.09;99782.33;125064;1102;104342;-78
2023/08/28 09:03:24;;;;;;;8.27;3.90;;;;;;;35.78;28.41;99782.13;125726;1102;101769;-82
2023/08/28 09:06:02;;;;;;;8.03;3.90;;;;;;;35.86;28.21;99778.74;125934;1100;104293;-78
2023/08/28 09:08:40;;;;;;;14.20;4.10;;;;;;;35.92;27.79;99780.97;127309;1100;101933;-79
2023/08/28 09:11:45;;;;;;;10.20;3.93;;;;;;;36.03;27.83;99780.98;127296;1098;104009;-80
2023/08/28 09:14:28;;;;;;;8.60;4.17;;;;;;;36.13;27.23;99772.88;127549;1098;101453;-84
2023/08/28 09:17:20;;;;;;;10.67;4.20;;;;;;;36.21;27.48;99772.25;126596;1100;110786;-79
2023/08/28 09:19:56;;;;;;;9.70;3.87;;;;;;;36.34;27.01;99765.66;126221;1101;102366;-82
2023/08/28 09:22:39;;;;;;;6.97;3.87;;;;;;;36.43;26.96;99774.92;126073;1101;104259;-81
2023/08/28 09:25:13;;;;;;;9.53;3.97;;;;;;;36.39;26.88;99764.39;125026;1100;104178;-81
2023/08/28 09:27:50;;;;;;;8.27;4.13;;;;;;;36.41;26.81;99767.88;125187;1099;101845;-80
2023/08/28 09:30:36;;;;;;;10.15;4.35;;;;;;;36.44;26.87;99763.02;125020;1099;102145;-82
2023/08/28 09:33:11;;;;;;;12.63;4.27;;;;;;;36.41;26.33;99760.54;125156;1099;102290;-79
2023/08/28 09:35:44;;;;;;;8.07;4.10;;;;;;;36.43;26.27;99750.34;125408;1099;101935;-83
2023/08/28 09:38:19;;;;;;;8.63;4.07;;;;;;;36.40;26.86;99756.06;125655;1100;104448;-80
2023/08/28 09:40:56;;;;;;;10.57;5.00;;;;;;;36.46;26.50;99741.89;126161;1101;102390;-83
2023/08/28 09:43:31;;;;;;;9.27;4.67;;;;;;;36.57;26.62;99743.70;125758;1102;101739;-83
2023/08/28 09:46:05;;;;;;;7.33;4.30;;;;;;;36.66;26.66;99740.19;125850;1099;104172;-80
2023/08/28 09:48:45;;;;;;;9.10;4.30;;;;;;;36.77;26.72;99738.44;126144;1099;102270;-82
2023/08/28 09:51:41;;;;;;;11.03;4.55;;;;;;;36.84;26.54;99735.05;125811;1099;101790;-82
2023/08/28 09:54:32;;;;;;;9.73;4.50;;;;;;;36.84;26.51;99735.05;126702;1098;101805;-82
2023/08/28 09:57:20;;;;;;;13.33;4.83;;;;;;;36.81;26.46;99729.84;127037;1099;101849;-81
2023/08/28 10:00:19;;;;;;;12.33;4.33;;;;;;;36.85;26.29;99728.59;125243;1102;104185;-84
2023/08/28 10:02:58;;;;;;;10.93;4.57;;;;;;;36.88;26.29;99725.55;125455;1102;102219;-83
2023/08/28 10:05:32;;;;;;;10.20;4.57;;;;;;;36.94;25.87;99718.70;126304;1101;104194;-85
2023/08/28 10:08:14;;;;;;;8.37;4.53;;;;;;;36.97;26.24;99723.04;125323;1099;102079;-82
2023/08/28 10:10:48;;;;;;;10.57;4.43;;;;;;;37.00;25.92;99722.77;126391;1098;101899;-81
2023/08/28 10:13:28;;;;;;;7.20;4.43;;;;;;;37.00;26.07;99714.57;126309;1101;101771;-82
2023/08/28 10:16:14;;;;;;;10.87;4.50;;;;;;;36.99;26.07;99710.09;126225;1099;102674;-81
2023/08/28 10:21:53;;;;;;;9.70;4.50;;;;;;;36.93;25.87;99711.48;126682;1100;101785;-85
2023/08/28 10:24:28;;;;;;;10.00;4.50;;;;;;;36.90;25.81;99710.89;126901;1100;102093;-80
2023/08/28 10:27:06;;;;;;;11.00;3.97;;;;;;;36.91;25.71;99713.50;126160;1099;101768;-87
2023/08/28 10:29:51;;;;;;;7.93;4.20;;;;;;;36.89;25.16;99710.05;125276;1102;102293;-85
2023/08/28 10:32:31;;;;;;;11.83;4.70;;;;;;;36.92;25.33;99708.88;126259;1101;102079;-83
2023/08/28 10:35:20;;;;;;;11.30;4.47;;;;;;;36.95;25.00;99697.68;125634;1102;104284;-83
2023/08/28 10:38:05;;;;;;;8.63;4.10;;;;;;;37.02;25.02;99688.81;126741;1098;101899;-84
2023/08/28 10:40:45;;;;;;;12.70;4.47;;;;;;;37.07;25.23;99688.40;126303;1100;101936;-82
2023/08/28 10:43:19;;;;;;;9.53;4.50;;;;;;;37.19;25.14;99697.40;126642;1100;102406;-81
2023/08/28 10:46:01;;;;;;;10.27;4.30;;;;;;;37.22;25.33;99688.95;126309;1100;102035;-85
2023/08/28 10:48:45;;;;;;;6.33;4.40;;;;;;;37.18;24.66;99693.80;126124;1102;102068;-81
2023/08/28 10:51:57;;;;;;;8.03;4.10;;;;;;;37.16;24.52;99695.79;126186;1099;101776;-81
2023/08/28 10:55:04;;;;;;;9.33;4.23;;;;;;;37.24;24.50;99681.47;126019;1101;104169;-81
2023/08/28 10:58:09;;;;;;;7.30;4.17;;;;;;;37.30;24.35;99689.13;126817;1100;101948;-82
2023/08/28 11:07:56;;;;;;;7.90;4.20;;;;;;;37.57;24.20;99682.16;124978;1102;104255;-85
2023/08/28 11:10:38;;;;;;;6.53;3.93;;;;;;;37.53;24.02;99683.47;125587;1102;104085;-82
2023/08/28 11:13:32;;;;;;;6.30;4.00;;;;;;;37.53;23.93;99675.26;126120;1101;104236;-84
2023/08/28 11:16:12;;;;;;;10.07;4.00;;;;;;;37.48;23.86;99664.73;125129;1102;102105;-81
2023/08/28 11:18:47;;;;;;;6.93;3.60;;;;;;;37.49;23.81;99669.17;126211;1101;104172;-77
2023/08/28 11:21:26;;;;;;;8.27;4.13;;;;;;;37.51;23.58;99672.66;124265;1099;104252;-80
2023/08/28 11:23:57;;;;;;;12.13;3.90;;;;;;;37.62;23.74;99662.59;124526;1099;104258;-81
2023/08/28 11:26:32;;;;;;;6.53;4.07;;;;;;;37.68;23.75;99660.18;125309;1101;102646;-81
2023/08/28 11:29:26;;;;;;;6.97;3.90;;;;;;;37.70;23.61;99655.45;124610;1102;102239;-82
2023/08/28 11:32:02;;;;;;;8.53;4.00;;;;;;;37.74;23.63;99653.29;125999;1100;104249;-81
2023/08/28 11:34:37;;;;;;;8.37;3.87;;;;;;;37.74;23.44;99654.17;126794;1101;101997;-84
2023/08/28 11:37:36;;;;;;;10.27;4.00;;;;;;;37.73;23.42;99659.80;125130;1102;104268;-81
2023/08/28 11:40:11;;;;;;;8.40;3.67;;;;;;;37.67;23.14;99650.23;124901;1102;101938;-79
2023/08/28 11:42:50;;;;;;;8.80;4.23;;;;;;;37.70;23.06;99649.13;127165;1099;104332;-82
2023/08/28 11:45:24;;;;;;;11.13;4.10;;;;;;;37.75;23.10;99647.67;126244;1100;104094;-81
2023/08/28 11:48:04;;;;;;;9.40;3.83;;;;;;;37.78;22.82;99645.69;125634;1098;101814;-82
2023/08/28 11:50:41;;;;;;;6.73;4.00;;;;;;;37.82;22.79;99637.05;126603;1100;101516;-85
2023/08/28 11:53:30;;;;;;;7.23;3.70;;;;;;;37.86;22.68;99640.36;126242;1102;102152;-82
2023/08/28 11:56:53;;;;;;;10.07;3.87;;;;;;;37.77;22.82;99622.90;125238;1102;104191;-82
2023/08/28 11:59:30;;;;;;;6.62;3.70;;;;;;;37.83;22.46;99640.64;125885;1102;104172;-84
2023/08/28 12:02:06;;;;;;;9.77;4.00;;;;;;;37.84;22.58;99635.02;126675;1101;102197;-84
2023/08/28 12:07:43;;;;;;;7.73;4.13;;;;;;;37.86;22.69;99649.42;125918;1098;101975;-84
2023/08/28 12:10:21;;;;;;;8.30;4.10;;;;;;;37.82;22.35;99638.89;125054;1099;101843;-79
2023/08/28 12:12:59;;;;;;;8.13;3.57;;;;;;;37.78;22.51;99640.21;125335;1099;104206;-84
2023/08/28 12:15:37;;;;;;;8.93;3.90;;;;;;;37.71;22.09;99629.83;127194;1098;104173;-84
2023/08/28 12:18:10;;;;;;;6.73;4.00;;;;;;;37.67;21.93;99636.55;125563;1099;102217;-84
2023/08/28 12:20:50;;;;;;;9.43;4.03;;;;;;;37.65;22.10;99629.47;126095;1102;104270;-82
2023/08/28 12:23:26;;;;;;;7.53;3.53;;;;;;;37.68;22.08;99623.72;127213;1098;107113;-80
2023/08/28 12:26:00;;;;;;;7.23;4.07;;;;;;;37.66;21.90;99615.64;126872;1098;101831;-85
2023/08/28 12:28:39;;;;;;;7.73;3.33;;;;;;;37.67;22.05;99611.06;126557;1099;102408;-85